createdAt,value
2023-03-02T00:02:06.203Z,2.64
2023-03-02T00:06:11.026Z,2.67
2023-03-02T00:10:14.110Z,2.70
2023-03-02T00:14:17.108Z,2.71
2023-03-02T00:18:20.130Z,2.70
2023-03-02T00:22:24.438Z,2.70
2023-03-02T00:26:27.561Z,2.72
2023-03-02T00:30:30.585Z,2.69
2023-03-02T00:34:33.875Z,2.64
2023-03-02T00:38:38.768Z,2.64
2023-03-02T00:42:43.223Z,2.64
2023-03-02T00:46:47.129Z,2.63
2023-03-02T00:50:50.224Z,2.63
2023-03-02T00:54:54.568Z,2.61
2023-03-02T00:58:57.673Z,2.58
2023-03-02T01:03:00.944Z,2.61
2023-03-02T01:07:06.884Z,2.61
2023-03-02T01:11:16.008Z,2.64
2023-03-02T01:15:19.304Z,2.67
2023-03-02T01:19:22.289Z,2.70
2023-03-02T01:23:25.344Z,2.66
2023-03-02T01:27:29.684Z,2.64
2023-03-02T01:31:33.090Z,2.61
2023-03-02T01:35:36.188Z,2.59
2023-03-02T01:39:39.367Z,2.58
2023-03-02T01:43:43.996Z,2.54
2023-03-02T01:47:47.061Z,2.52
2023-03-02T01:51:54.845Z,2.46
2023-03-02T01:55:58.993Z,2.39
2023-03-02T02:00:08.896Z,2.35
2023-03-02T02:04:15.272Z,2.27
2023-03-02T02:08:18.811Z,2.22
2023-03-02T02:12:23.748Z,2.19
2023-03-02T02:16:30.009Z,2.25
2023-03-02T02:20:38.297Z,2.28
2023-03-02T02:24:45.201Z,2.26
2023-03-02T02:28:57.828Z,2.23
2023-03-02T02:33:03.772Z,2.13
2023-03-02T02:37:12.972Z,2.06
2023-03-02T02:41:21.730Z,2.01
2023-03-02T02:45:29.411Z,1.89
2023-03-02T02:49:36.791Z,1.73
2023-03-02T02:53:45.096Z,1.65
2023-03-02T02:57:48.547Z,1.61
2023-03-02T03:01:54.073Z,1.53
2023-03-02T03:05:57.727Z,1.48
2023-03-02T03:10:09.876Z,1.47
2023-03-02T03:14:16.468Z,1.49
2023-03-02T03:18:25.452Z,1.50
2023-03-02T03:22:28.496Z,1.49
2023-03-02T03:26:32.857Z,1.44
2023-03-02T03:30:36.158Z,1.41
2023-03-02T03:34:41.681Z,1.37
2023-03-02T03:38:58.346Z,1.31
2023-03-02T03:43:01.847Z,1.28
2023-03-02T03:47:05.157Z,1.27
2023-03-02T03:51:10.652Z,1.24
2023-03-02T03:55:14.722Z,1.22
2023-03-02T03:59:22.567Z,1.18
2023-03-02T04:03:34.876Z,1.16
2023-03-02T04:07:42.407Z,1.16
2023-03-02T04:11:47.441Z,1.14
2023-03-02T04:15:50.934Z,1.13
2023-03-02T04:19:53.999Z,1.08
2023-03-02T04:23:58.610Z,1.04
2023-03-02T04:28:01.862Z,1.00
2023-03-02T04:32:10.224Z,0.98
2023-03-02T04:36:15.415Z,0.90
2023-03-02T04:40:20.952Z,0.87
2023-03-02T04:44:24.064Z,0.87
2023-03-02T04:48:27.486Z,0.87
2023-03-02T04:52:31.241Z,0.84
2023-03-02T04:56:36.002Z,0.83
2023-03-02T05:00:39.001Z,0.81
2023-03-02T05:04:42.498Z,0.79
2023-03-02T05:08:45.965Z,0.76
2023-03-02T05:12:58.157Z,0.71
2023-03-02T05:17:01.310Z,0.70
2023-03-02T05:21:04.839Z,0.68
2023-03-02T05:25:08.814Z,0.64
2023-03-02T05:29:13.297Z,0.62
2023-03-02T05:33:16.956Z,0.57
2023-03-02T05:37:20.051Z,0.55
2023-03-02T05:41:23.027Z,0.54
2023-03-02T05:45:29.452Z,0.51
2023-03-02T05:49:32.686Z,0.52
2023-03-02T05:53:35.820Z,0.50
2023-03-02T05:57:38.791Z,0.50
2023-03-02T06:01:43.317Z,0.45
2023-03-02T06:05:50.709Z,0.41
2023-03-02T06:09:54.026Z,0.35
2023-03-02T06:13:57.424Z,0.36
2023-03-02T06:18:02.339Z,0.36
2023-03-02T06:22:05.357Z,0.35
2023-03-02T06:26:09.709Z,0.38
2023-03-02T06:30:16.216Z,0.43
2023-03-02T06:34:20.686Z,0.48
2023-03-02T06:38:24.248Z,0.52
2023-03-02T06:42:29.154Z,0.57
2023-03-02T06:46:32.340Z,0.61
2023-03-02T06:50:37.081Z,0.67
2023-03-02T06:54:40.140Z,0.71
2023-03-02T06:58:43.455Z,0.75
2023-03-02T07:02:46.761Z,0.82
2023-03-02T07:06:51.230Z,0.88
2023-03-02T07:10:54.202Z,0.95
2023-03-02T07:14:57.246Z,1.00
2023-03-02T07:19:00.218Z,1.04
2023-03-02T07:23:04.934Z,1.16
2023-03-02T07:27:07.944Z,1.30
2023-03-02T07:31:12.155Z,1.43
2023-03-02T07:35:17.076Z,1.52
2023-03-02T07:39:21.868Z,1.57
2023-03-02T07:43:26.074Z,1.67
2023-03-02T07:47:29.238Z,1.72
2023-03-02T07:51:32.765Z,1.73
2023-03-02T07:55:41.823Z,1.76
2023-03-02T07:59:45.298Z,1.86
2023-03-02T08:03:48.476Z,1.94
2023-03-02T08:07:51.427Z,2.02
2023-03-02T08:11:55.891Z,2.09
2023-03-02T08:16:01.543Z,2.19
2023-03-02T08:20:05.558Z,2.28
2023-03-02T08:24:09.232Z,2.35
2023-03-02T08:28:13.826Z,2.41
2023-03-02T08:32:16.834Z,2.48
2023-03-02T08:36:21.398Z,2.55
2023-03-02T08:40:24.354Z,2.60
2023-03-02T08:44:28.991Z,2.72
2023-03-02T08:48:31.944Z,2.86
2023-03-02T08:52:35.372Z,2.94
2023-03-02T08:56:40.314Z,3.02
2023-03-02T09:00:45.104Z,3.11
2023-03-02T09:04:48.148Z,3.21
2023-03-02T09:08:51.464Z,3.23
2023-03-02T09:12:54.427Z,3.28
2023-03-02T09:16:59.084Z,3.34
2023-03-02T09:21:02.375Z,3.45
2023-03-02T09:25:06.735Z,3.55
2023-03-02T09:29:10.136Z,3.64
2023-03-02T09:33:14.624Z,3.67
2023-03-02T09:37:17.694Z,3.75
2023-03-02T09:42:03.400Z,3.89
2023-03-02T09:46:17.213Z,3.97
2023-03-02T09:50:30.423Z,4.07
2023-03-02T09:54:33.831Z,4.22
2023-03-02T09:58:40.619Z,4.30
2023-03-02T10:02:49.157Z,4.41
2023-03-02T10:06:59.191Z,4.53
2023-03-02T10:11:09.520Z,4.64
2023-03-02T10:15:18.112Z,4.71
2023-03-02T10:19:26.449Z,4.82
2023-03-02T10:23:45.227Z,4.96
2023-03-02T10:27:51.880Z,5.09
2023-03-02T10:32:00.819Z,5.30
2023-03-02T10:36:07.274Z,5.44
2023-03-02T10:40:29.228Z,5.62
2023-03-02T10:44:37.576Z,5.77
2023-03-02T10:48:52.453Z,5.90
2023-03-02T10:53:00.275Z,5.99
2023-03-02T10:57:20.832Z,6.09
2023-03-02T11:01:23.878Z,6.25
2023-03-02T11:05:33.508Z,6.32
2023-03-02T11:09:36.464Z,6.44
2023-03-02T11:13:41.057Z,6.52
2023-03-02T11:17:46.452Z,6.64
2023-03-02T11:21:55.021Z,6.78
2023-03-02T11:26:01.789Z,6.90
2023-03-02T11:30:14.884Z,7.07
2023-03-02T11:34:40.626Z,7.11
2023-03-02T11:38:49.079Z,7.22
2023-03-02T11:42:52.434Z,7.23
2023-03-02T11:47:01.992Z,7.37
2023-03-02T11:51:07.728Z,7.54
2023-03-02T11:55:19.563Z,7.61
2023-03-02T11:59:27.514Z,7.59
2023-03-02T12:03:41.772Z,7.63
2023-03-02T12:07:46.828Z,7.62
2023-03-02T12:11:57.011Z,7.79
2023-03-02T12:16:00.627Z,7.90
2023-03-02T12:20:27.067Z,7.98
2023-03-02T12:24:32.606Z,8.06
2023-03-02T12:28:37.269Z,8.11
2023-03-02T12:32:40.259Z,8.13
2023-03-02T12:36:45.866Z,8.28
2023-03-02T12:41:01.326Z,8.30
2023-03-02T12:45:15.474Z,8.35
2023-03-02T12:49:36.370Z,8.41
2023-03-02T12:53:41.353Z,8.37
2023-03-02T12:57:49.349Z,8.41
2023-03-02T13:01:53.014Z,8.41
2023-03-02T13:06:02.725Z,8.45
2023-03-02T13:10:17.301Z,8.45
2023-03-02T13:14:23.293Z,8.48
2023-03-02T13:18:31.853Z,8.54
2023-03-02T13:22:35.106Z,8.59
2023-03-02T13:26:40.442Z,8.58
2023-03-02T13:30:47.796Z,8.58
2023-03-02T13:34:53.807Z,8.60
2023-03-02T13:39:00.334Z,8.60
2023-03-02T13:43:08.683Z,8.63
2023-03-02T13:47:23.639Z,8.61
2023-03-02T13:51:31.917Z,8.64
2023-03-02T13:55:36.026Z,8.62
2023-03-02T13:59:42.155Z,8.62
2023-03-02T14:03:45.294Z,8.66
2023-03-02T14:07:48.689Z,8.65
2023-03-02T14:11:54.351Z,8.64
2023-03-02T14:15:58.768Z,8.64
2023-03-02T14:20:01.760Z,8.65
2023-03-02T14:24:04.961Z,8.69
2023-03-02T14:28:10.181Z,8.67
2023-03-02T14:32:16.483Z,8.67
2023-03-02T14:36:24.384Z,8.64
2023-03-02T14:40:29.184Z,8.64
2023-03-02T14:44:32.464Z,8.67
2023-03-02T14:48:37.029Z,8.72
2023-03-02T14:52:44.081Z,8.69
2023-03-02T14:56:49.335Z,8.73
2023-03-02T15:00:53.532Z,8.73
2023-03-02T15:04:58.313Z,8.76
2023-03-02T15:09:02.040Z,8.76
2023-03-02T15:13:05.101Z,8.77
2023-03-02T15:17:08.299Z,8.78
2023-03-02T15:21:18.213Z,8.80
2023-03-02T15:25:23.931Z,8.84
2023-03-02T15:29:27.057Z,8.89
2023-03-02T15:33:30.020Z,8.87
2023-03-02T15:37:34.418Z,8.89
2023-03-02T15:41:37.446Z,8.87
2023-03-02T15:45:45.798Z,8.86
2023-03-02T15:49:48.791Z,8.84
2023-03-02T15:53:53.218Z,8.81
2023-03-02T15:57:58.857Z,8.82
2023-03-02T16:02:02.480Z,8.80
2023-03-02T16:06:07.320Z,8.76
2023-03-02T16:10:16.536Z,8.73
2023-03-02T16:14:19.951Z,8.70
2023-03-02T16:18:23.059Z,8.65
2023-03-02T16:22:26.275Z,8.62
2023-03-02T16:26:30.753Z,8.55
2023-03-02T16:30:35.523Z,8.49
2023-03-02T16:34:38.587Z,8.42
2023-03-02T16:38:42.179Z,8.35
2023-03-02T16:42:46.725Z,8.28
2023-03-02T16:46:49.754Z,8.23
2023-03-02T16:50:57.219Z,8.16
2023-03-02T16:55:00.254Z,8.09
2023-03-02T16:59:04.729Z,8.03
2023-03-02T17:03:07.875Z,7.97
2023-03-02T17:07:11.289Z,7.90
2023-03-02T17:11:14.261Z,7.78
2023-03-02T17:15:18.914Z,7.72
2023-03-02T17:19:21.887Z,7.70
2023-03-02T17:23:25.174Z,7.65
2023-03-02T17:27:28.568Z,7.59
2023-03-02T17:31:33.036Z,7.54
2023-03-02T17:35:36.550Z,7.51
2023-03-02T17:39:40.686Z,7.45
2023-03-02T17:43:43.794Z,7.38
2023-03-02T17:47:50.153Z,7.28
2023-03-02T17:51:53.178Z,7.20
2023-03-02T17:55:56.297Z,7.14
2023-03-02T17:59:59.311Z,7.05
2023-03-02T18:04:04.872Z,6.98
2023-03-02T18:08:08.069Z,6.90
2023-03-02T18:12:11.275Z,6.85
2023-03-02T18:16:14.697Z,6.78
2023-03-02T18:20:19.288Z,6.66
2023-03-02T18:24:22.494Z,6.54
2023-03-02T18:28:25.663Z,6.39
2023-03-02T18:32:28.900Z,6.31
2023-03-02T18:36:33.392Z,6.24
2023-03-02T18:40:36.408Z,6.22
2023-03-02T18:44:39.523Z,6.17
2023-03-02T18:48:42.489Z,6.11
2023-03-02T18:52:47.018Z,6.06
2023-03-02T18:56:49.965Z,6.01
2023-03-02T19:00:54.105Z,5.94
2023-03-02T19:04:57.140Z,5.87
2023-03-02T19:09:01.794Z,5.83
2023-03-02T19:13:05.531Z,5.76
2023-03-02T19:17:08.662Z,5.70
2023-03-02T19:21:11.609Z,5.63
2023-03-02T19:25:16.077Z,5.48
2023-03-02T19:29:19.082Z,5.34
2023-03-02T19:33:24.791Z,5.27
2023-03-02T19:37:27.759Z,5.16
2023-03-02T19:41:32.501Z,5.11
2023-03-02T19:45:36.321Z,5.05
2023-03-02T19:49:39.394Z,4.98
2023-03-02T19:53:43.574Z,4.90
2023-03-02T19:57:51.370Z,4.83
2023-03-02T20:01:56.561Z,4.77
2023-03-02T20:05:59.822Z,4.68
2023-03-02T20:10:03.049Z,4.65
2023-03-02T20:14:07.863Z,4.61
2023-03-02T20:18:13.267Z,4.56
2023-03-02T20:22:17.025Z,4.53
2023-03-02T20:26:20.206Z,4.50
2023-03-02T20:30:28.656Z,4.46
2023-03-02T20:34:31.979Z,4.44
2023-03-02T20:38:39.354Z,4.40
2023-03-02T20:42:42.418Z,4.36
2023-03-02T20:46:49.992Z,4.23
2023-03-02T20:50:53.129Z,4.12
2023-03-02T20:54:56.236Z,4.02
2023-03-02T20:58:59.292Z,3.98
2023-03-02T21:03:04.207Z,3.93
2023-03-02T21:07:07.454Z,3.81
2023-03-02T21:11:15.710Z,3.75
2023-03-02T21:15:20.199Z,3.68
2023-03-02T21:19:25.706Z,3.57
2023-03-02T21:23:29.574Z,3.50
2023-03-02T21:27:32.782Z,3.43
2023-03-02T21:31:35.882Z,3.39
2023-03-02T21:35:40.738Z,3.35
2023-03-02T21:39:43.786Z,3.32
2023-03-02T21:43:47.794Z,3.31
2023-03-02T21:47:52.089Z,3.23
2023-03-02T21:51:57.183Z,3.09
2023-03-02T21:56:02.295Z,3.02
2023-03-02T22:00:06.387Z,3.00
2023-03-02T22:04:09.448Z,2.97
2023-03-02T22:08:17.808Z,2.92
2023-03-02T22:12:23.721Z,2.86
2023-03-02T22:16:28.155Z,2.83
2023-03-02T22:20:32.328Z,2.81
2023-03-02T22:24:36.904Z,2.80
2023-03-02T22:28:41.062Z,2.77
2023-03-02T22:32:44.195Z,2.74
2023-03-02T22:36:47.229Z,2.68
2023-03-02T22:40:53.178Z,2.62
2023-03-02T22:45:03.446Z,2.57
2023-03-02T22:49:16.453Z,2.50
2023-03-02T22:53:31.061Z,2.44
2023-03-02T22:57:36.905Z,2.41
2023-03-02T23:01:43.234Z,2.39
2023-03-02T23:05:49.179Z,2.39
2023-03-02T23:09:52.244Z,2.35
2023-03-02T23:13:57.236Z,2.28
2023-03-02T23:18:00.245Z,2.24
2023-03-02T23:22:04.650Z,2.17
2023-03-02T23:26:07.654Z,2.10
2023-03-02T23:30:13.080Z,2.02
2023-03-02T23:34:16.455Z,1.98
2023-03-02T23:38:19.512Z,1.96
2023-03-02T23:42:22.501Z,1.93
2023-03-02T23:46:27.053Z,1.90
2023-03-02T23:50:30.373Z,1.88
2023-03-02T23:54:33.501Z,1.88
2023-03-02T23:58:36.554Z,1.88
